sensor_id;sensor_type;location;lat;lon;timestamp;P1;durP1;ratioP1;P2;durP2;ratioP2
36547;SDS011;22551;52.206;4.856;2023-02-28T00:01:54;2.97;;;0.90;;
36547;SDS011;22551;52.206;4.856;2023-02-28T00:06:59;3.35;;;0.80;;
36547;SDS011;22551;52.206;4.856;2023-02-28T00:12:02;3.78;;;0.80;;
36547;SDS011;22551;52.206;4.856;2023-02-28T00:17:10;2.13;;;0.95;;
36547;SDS011;22551;52.206;4.856;2023-02-28T00:22:13;5.90;;;1.17;;
36547;SDS011;22551;52.206;4.856;2023-02-28T00:27:16;0.93;;;0.65;;
36547;SDS011;22551;52.206;4.856;2023-02-28T00:32:18;5.63;;;0.93;;
36547;SDS011;22551;52.206;4.856;2023-02-28T00:37:22;4.13;;;0.85;;
36547;SDS011;22551;52.206;4.856;2023-02-28T00:42:24;2.70;;;0.85;;
36547;SDS011;22551;52.206;4.856;2023-02-28T00:47:26;1.15;;;0.80;;
36547;SDS011;22551;52.206;4.856;2023-02-28T00:52:30;5.05;;;1.17;;
36547;SDS011;22551;52.206;4.856;2023-02-28T00:57:32;3.58;;;1.20;;
36547;SDS011;22551;52.206;4.856;2023-02-28T01:02:34;2.65;;;1.20;;
36547;SDS011;22551;52.206;4.856;2023-02-28T01:07:38;5.88;;;1.30;;
36547;SDS011;22551;52.206;4.856;2023-02-28T01:12:40;1.52;;;0.90;;
36547;SDS011;22551;52.206;4.856;2023-02-28T01:17:42;2.25;;;0.70;;
36547;SDS011;22551;52.206;4.856;2023-02-28T01:22:46;2.63;;;1.23;;
36547;SDS011;22551;52.206;4.856;2023-02-28T01:27:48;4.93;;;1.00;;
36547;SDS011;22551;52.206;4.856;2023-02-28T01:32:50;3.67;;;1.10;;
36547;SDS011;22551;52.206;4.856;2023-02-28T01:37:55;3.35;;;1.40;;
36547;SDS011;22551;52.206;4.856;2023-02-28T01:42:57;4.28;;;1.17;;
36547;SDS011;22551;52.206;4.856;2023-02-28T01:48:01;3.92;;;1.05;;
36547;SDS011;22551;52.206;4.856;2023-02-28T01:53:13;6.80;;;1.38;;
36547;SDS011;22551;52.206;4.856;2023-02-28T01:58:19;1.80;;;0.95;;
36547;SDS011;22551;52.206;4.856;2023-02-28T02:03:21;2.95;;;1.60;;
36547;SDS011;22551;52.206;4.856;2023-02-28T02:14:37;6.63;;;1.40;;
36547;SDS011;22551;52.206;4.856;2023-02-28T02:25:53;3.28;;;0.70;;
36547;SDS011;22551;52.206;4.856;2023-02-28T02:36:42;1.73;;;1.27;;
36547;SDS011;22551;52.206;4.856;2023-02-28T02:41:52;1.52;;;1.00;;
36547;SDS011;22551;52.206;4.856;2023-02-28T02:46:58;5.13;;;1.55;;
36547;SDS011;22551;52.206;4.856;2023-02-28T02:52:08;2.67;;;1.20;;
36547;SDS011;22551;52.206;4.856;2023-02-28T02:57:14;2.22;;;1.17;;
36547;SDS011;22551;52.206;4.856;2023-02-28T03:02:22;3.85;;;1.30;;
36547;SDS011;22551;52.206;4.856;2023-02-28T03:07:27;3.30;;;1.50;;
36547;SDS011;22551;52.206;4.856;2023-02-28T03:12:32;4.75;;;1.70;;
36547;SDS011;22551;52.206;4.856;2023-02-28T03:17:47;1.73;;;1.60;;
36547;SDS011;22551;52.206;4.856;2023-02-28T03:23:07;8.60;;;2.33;;
36547;SDS011;22551;52.206;4.856;2023-02-28T03:28:19;4.43;;;1.80;;
36547;SDS011;22551;52.206;4.856;2023-02-28T03:33:32;7.72;;;2.00;;
36547;SDS011;22551;52.206;4.856;2023-02-28T03:38:43;10.55;;;1.90;;
36547;SDS011;22551;52.206;4.856;2023-02-28T03:43:49;6.15;;;1.80;;
36547;SDS011;22551;52.206;4.856;2023-02-28T03:48:55;4.78;;;1.60;;
36547;SDS011;22551;52.206;4.856;2023-02-28T03:54:06;3.15;;;1.83;;
36547;SDS011;22551;52.206;4.856;2023-02-28T03:59:14;4.20;;;1.95;;
36547;SDS011;22551;52.206;4.856;2023-02-28T04:04:20;4.53;;;1.88;;
36547;SDS011;22551;52.206;4.856;2023-02-28T04:09:25;5.47;;;2.40;;
36547;SDS011;22551;52.206;4.856;2023-02-28T04:14:27;5.28;;;2.10;;
36547;SDS011;22551;52.206;4.856;2023-02-28T04:19:30;4.38;;;2.15;;
36547;SDS011;22551;52.206;4.856;2023-02-28T04:24:33;5.65;;;2.42;;
36547;SDS011;22551;52.206;4.856;2023-02-28T04:29:36;7.53;;;2.95;;
36547;SDS011;22551;52.206;4.856;2023-02-28T04:34:39;6.85;;;2.38;;
36547;SDS011;22551;52.206;4.856;2023-02-28T04:39:43;4.90;;;2.30;;
36547;SDS011;22551;52.206;4.856;2023-02-28T04:44:45;3.25;;;2.10;;
36547;SDS011;22551;52.206;4.856;2023-02-28T04:49:48;6.28;;;2.38;;
36547;SDS011;22551;52.206;4.856;2023-02-28T04:54:51;4.80;;;2.60;;
36547;SDS011;22551;52.206;4.856;2023-02-28T04:59:54;3.95;;;2.33;;
36547;SDS011;22551;52.206;4.856;2023-02-28T05:04:56;5.80;;;2.33;;
36547;SDS011;22551;52.206;4.856;2023-02-28T05:09:59;6.55;;;2.80;;
36547;SDS011;22551;52.206;4.856;2023-02-28T05:15:02;6.28;;;2.63;;
36547;SDS011;22551;52.206;4.856;2023-02-28T05:20:05;7.82;;;3.10;;
36547;SDS011;22551;52.206;4.856;2023-02-28T05:25:12;5.07;;;3.00;;
36547;SDS011;22551;52.206;4.856;2023-02-28T05:30:18;5.38;;;2.97;;
36547;SDS011;22551;52.206;4.856;2023-02-28T05:35:21;10.40;;;3.33;;
36547;SDS011;22551;52.206;4.856;2023-02-28T05:40:25;6.88;;;3.25;;
36547;SDS011;22551;52.206;4.856;2023-02-28T05:45:27;9.10;;;4.07;;
36547;SDS011;22551;52.206;4.856;2023-02-28T05:50:30;7.80;;;3.67;;
36547;SDS011;22551;52.206;4.856;2023-02-28T05:55:34;9.73;;;4.65;;
36547;SDS011;22551;52.206;4.856;2023-02-28T06:00:37;7.60;;;3.67;;
36547;SDS011;22551;52.206;4.856;2023-02-28T06:05:39;7.10;;;3.90;;
36547;SDS011;22551;52.206;4.856;2023-02-28T06:10:43;5.93;;;3.65;;
36547;SDS011;22551;52.206;4.856;2023-02-28T06:15:46;7.88;;;3.88;;
36547;SDS011;22551;52.206;4.856;2023-02-28T06:20:52;7.35;;;4.40;;
36547;SDS011;22551;52.206;4.856;2023-02-28T06:25:56;9.88;;;4.25;;
36547;SDS011;22551;52.206;4.856;2023-02-28T06:30:58;6.13;;;4.15;;
36547;SDS011;22551;52.206;4.856;2023-02-28T06:36:02;5.30;;;3.67;;
36547;SDS011;22551;52.206;4.856;2023-02-28T06:41:07;7.32;;;3.10;;
36547;SDS011;22551;52.206;4.856;2023-02-28T06:46:10;5.05;;;2.90;;
36547;SDS011;22551;52.206;4.856;2023-02-28T06:51:15;7.38;;;2.70;;
36547;SDS011;22551;52.206;4.856;2023-02-28T06:56:21;3.05;;;2.20;;
36547;SDS011;22551;52.206;4.856;2023-02-28T07:01:24;4.80;;;2.20;;
36547;SDS011;22551;52.206;4.856;2023-02-28T07:06:27;3.65;;;2.45;;
36547;SDS011;22551;52.206;4.856;2023-02-28T07:11:31;3.42;;;2.53;;
36547;SDS011;22551;52.206;4.856;2023-02-28T07:16:34;4.95;;;2.60;;
36547;SDS011;22551;52.206;4.856;2023-02-28T07:21:37;7.43;;;3.28;;
36547;SDS011;22551;52.206;4.856;2023-02-28T07:26:41;4.07;;;2.75;;
36547;SDS011;22551;52.206;4.856;2023-02-28T07:31:43;7.10;;;2.80;;
36547;SDS011;22551;52.206;4.856;2023-02-28T07:36:46;7.57;;;2.97;;
36547;SDS011;22551;52.206;4.856;2023-02-28T07:41:50;5.32;;;3.00;;
36547;SDS011;22551;52.206;4.856;2023-02-28T07:46:52;6.20;;;3.22;;
36547;SDS011;22551;52.206;4.856;2023-02-28T07:51:54;5.40;;;2.97;;
36547;SDS011;22551;52.206;4.856;2023-02-28T07:56:58;6.60;;;3.70;;
36547;SDS011;22551;52.206;4.856;2023-02-28T08:02:00;5.93;;;3.60;;
36547;SDS011;22551;52.206;4.856;2023-02-28T08:07:02;8.48;;;4.45;;
36547;SDS011;22551;52.206;4.856;2023-02-28T08:12:06;8.40;;;3.80;;
36547;SDS011;22551;52.206;4.856;2023-02-28T08:17:09;8.60;;;4.07;;
36547;SDS011;22551;52.206;4.856;2023-02-28T08:22:12;8.40;;;3.65;;
36547;SDS011;22551;52.206;4.856;2023-02-28T08:27:16;7.55;;;4.00;;
36547;SDS011;22551;52.206;4.856;2023-02-28T08:32:18;6.07;;;4.20;;
36547;SDS011;22551;52.206;4.856;2023-02-28T08:37:21;6.60;;;3.60;;
36547;SDS011;22551;52.206;4.856;2023-02-28T08:42:24;8.07;;;4.50;;
36547;SDS011;22551;52.206;4.856;2023-02-28T08:47:27;6.60;;;4.00;;
36547;SDS011;22551;52.206;4.856;2023-02-28T08:52:29;8.55;;;4.53;;
36547;SDS011;22551;52.206;4.856;2023-02-28T08:57:33;7.32;;;4.47;;
36547;SDS011;22551;52.206;4.856;2023-02-28T09:02:35;8.38;;;4.45;;
36547;SDS011;22551;52.206;4.856;2023-02-28T09:07:38;11.50;;;5.25;;
36547;SDS011;22551;52.206;4.856;2023-02-28T09:12:41;7.18;;;4.75;;
36547;SDS011;22551;52.206;4.856;2023-02-28T09:17:46;9.48;;;4.85;;
36547;SDS011;22551;52.206;4.856;2023-02-28T09:22:48;7.80;;;4.43;;
36547;SDS011;22551;52.206;4.856;2023-02-28T09:27:51;7.63;;;4.68;;
36547;SDS011;22551;52.206;4.856;2023-02-28T09:32:54;7.75;;;4.70;;
36547;SDS011;22551;52.206;4.856;2023-02-28T09:37:56;9.32;;;3.72;;
36547;SDS011;22551;52.206;4.856;2023-02-28T09:43:00;7.03;;;3.13;;
36547;SDS011;22551;52.206;4.856;2023-02-28T09:48:03;8.25;;;4.40;;
36547;SDS011;22551;52.206;4.856;2023-02-28T09:53:14;6.22;;;3.83;;
36547;SDS011;22551;52.206;4.856;2023-02-28T09:58:26;7.28;;;4.40;;
36547;SDS011;22551;52.206;4.856;2023-02-28T10:03:36;7.85;;;3.95;;
36547;SDS011;22551;52.206;4.856;2023-02-28T10:08:43;6.00;;;3.13;;
36547;SDS011;22551;52.206;4.856;2023-02-28T10:13:56;8.18;;;3.72;;
36547;SDS011;22551;52.206;4.856;2023-02-28T10:19:06;4.97;;;3.40;;
36547;SDS011;22551;52.206;4.856;2023-02-28T10:24:19;5.43;;;2.88;;
36547;SDS011;22551;52.206;4.856;2023-02-28T10:29:26;6.72;;;3.60;;
36547;SDS011;22551;52.206;4.856;2023-02-28T10:34:29;5.30;;;2.50;;
36547;SDS011;22551;52.206;4.856;2023-02-28T10:39:39;4.57;;;2.42;;
36547;SDS011;22551;52.206;4.856;2023-02-28T10:44:44;3.85;;;2.65;;
36547;SDS011;22551;52.206;4.856;2023-02-28T10:49:47;6.32;;;2.53;;
36547;SDS011;22551;52.206;4.856;2023-02-28T10:54:52;2.70;;;2.15;;
36547;SDS011;22551;52.206;4.856;2023-02-28T11:00:23;3.03;;;2.03;;
36547;SDS011;22551;52.206;4.856;2023-02-28T11:05:28;4.03;;;2.30;;
36547;SDS011;22551;52.206;4.856;2023-02-28T11:10:33;4.40;;;2.45;;
36547;SDS011;22551;52.206;4.856;2023-02-28T11:15:35;2.53;;;2.10;;
36547;SDS011;22551;52.206;4.856;2023-02-28T11:20:38;1.67;;;1.58;;
36547;SDS011;22551;52.206;4.856;2023-02-28T11:25:46;5.75;;;2.08;;
36547;SDS011;22551;52.206;4.856;2023-02-28T11:31:00;2.78;;;1.90;;
36547;SDS011;22551;52.206;4.856;2023-02-28T11:36:17;1.80;;;1.55;;
36547;SDS011;22551;52.206;4.856;2023-02-28T11:41:35;2.83;;;1.88;;
36547;SDS011;22551;52.206;4.856;2023-02-28T11:46:56;1.70;;;1.60;;
36547;SDS011;22551;52.206;4.856;2023-02-28T11:52:05;3.28;;;1.75;;
36547;SDS011;22551;52.206;4.856;2023-02-28T11:57:24;3.25;;;1.65;;
36547;SDS011;22551;52.206;4.856;2023-02-28T12:03:00;2.10;;;1.50;;
36547;SDS011;22551;52.206;4.856;2023-02-28T12:08:22;3.17;;;1.73;;
36547;SDS011;22551;52.206;4.856;2023-02-28T12:13:51;1.80;;;1.40;;
36547;SDS011;22551;52.206;4.856;2023-02-28T12:19:18;1.98;;;1.75;;
36547;SDS011;22551;52.206;4.856;2023-02-28T12:24:27;2.97;;;1.67;;
36547;SDS011;22551;52.206;4.856;2023-02-28T12:30:05;2.30;;;1.60;;
36547;SDS011;22551;52.206;4.856;2023-02-28T12:35:17;1.70;;;1.30;;
36547;SDS011;22551;52.206;4.856;2023-02-28T12:40:24;4.13;;;1.70;;
36547;SDS011;22551;52.206;4.856;2023-02-28T12:45:42;1.88;;;1.40;;
36547;SDS011;22551;52.206;4.856;2023-02-28T12:50:49;3.10;;;1.73;;
36547;SDS011;22551;52.206;4.856;2023-02-28T12:55:55;2.70;;;1.60;;
36547;SDS011;22551;52.206;4.856;2023-02-28T13:01:21;3.08;;;1.30;;
36547;SDS011;22551;52.206;4.856;2023-02-28T13:06:53;4.15;;;1.77;;
36547;SDS011;22551;52.206;4.856;2023-02-28T13:12:12;3.58;;;1.52;;
36547;SDS011;22551;52.206;4.856;2023-02-28T13:17:19;1.88;;;1.35;;
36547;SDS011;22551;52.206;4.856;2023-02-28T13:22:36;3.88;;;1.50;;
36547;SDS011;22551;52.206;4.856;2023-02-28T13:27:41;2.05;;;1.30;;
36547;SDS011;22551;52.206;4.856;2023-02-28T13:32:45;4.38;;;1.90;;
36547;SDS011;22551;52.206;4.856;2023-02-28T13:37:47;5.57;;;2.53;;
36547;SDS011;22551;52.206;4.856;2023-02-28T13:42:51;1.23;;;0.85;;
36547;SDS011;22551;52.206;4.856;2023-02-28T13:47:56;3.30;;;1.17;;
36547;SDS011;22551;52.206;4.856;2023-02-28T13:53:18;2.50;;;1.27;;
36547;SDS011;22551;52.206;4.856;2023-02-28T13:58:53;3.00;;;1.17;;
36547;SDS011;22551;52.206;4.856;2023-02-28T14:09:54;1.95;;;1.30;;
36547;SDS011;22551;52.206;4.856;2023-02-28T14:15:23;1.98;;;1.30;;
36547;SDS011;22551;52.206;4.856;2023-02-28T14:20:49;3.40;;;1.60;;
36547;SDS011;22551;52.206;4.856;2023-02-28T14:25:59;2.67;;;1.40;;
36547;SDS011;22551;52.206;4.856;2023-02-28T14:31:12;2.60;;;1.58;;
36547;SDS011;22551;52.206;4.856;2023-02-28T14:36:20;4.07;;;1.60;;
36547;SDS011;22551;52.206;4.856;2023-02-28T14:41:29;2.78;;;1.77;;
36547;SDS011;22551;52.206;4.856;2023-02-28T14:46:35;2.60;;;1.55;;
36547;SDS011;22551;52.206;4.856;2023-02-28T14:51:43;3.75;;;1.70;;
36547;SDS011;22551;52.206;4.856;2023-02-28T14:56:48;3.67;;;1.73;;
36547;SDS011;22551;52.206;4.856;2023-02-28T15:01:51;2.80;;;1.50;;
36547;SDS011;22551;52.206;4.856;2023-02-28T15:07:12;2.58;;;1.65;;
36547;SDS011;22551;52.206;4.856;2023-02-28T15:12:16;2.17;;;1.70;;
36547;SDS011;22551;52.206;4.856;2023-02-28T15:17:20;46.97;;;4.15;;
36547;SDS011;22551;52.206;4.856;2023-02-28T15:22:31;4.68;;;2.10;;
36547;SDS011;22551;52.206;4.856;2023-02-28T15:27:39;3.72;;;1.80;;
36547;SDS011;22551;52.206;4.856;2023-02-28T15:33:01;2.40;;;2.00;;
36547;SDS011;22551;52.206;4.856;2023-02-28T15:38:14;2.28;;;2.08;;
36547;SDS011;22551;52.206;4.856;2023-02-28T15:43:24;3.17;;;2.03;;
36547;SDS011;22551;52.206;4.856;2023-02-28T15:48:29;5.30;;;2.20;;
36547;SDS011;22551;52.206;4.856;2023-02-28T15:53:35;10.30;;;1.95;;
36547;SDS011;22551;52.206;4.856;2023-02-28T15:58:41;2.08;;;1.88;;
36547;SDS011;22551;52.206;4.856;2023-02-28T16:03:44;7.05;;;2.00;;
36547;SDS011;22551;52.206;4.856;2023-02-28T16:08:51;6.07;;;2.15;;
36547;SDS011;22551;52.206;4.856;2023-02-28T16:13:53;4.30;;;2.13;;
36547;SDS011;22551;52.206;4.856;2023-02-28T16:18:56;5.93;;;1.98;;
36547;SDS011;22551;52.206;4.856;2023-02-28T16:24:00;5.15;;;2.10;;
36547;SDS011;22551;52.206;4.856;2023-02-28T16:29:02;4.97;;;2.53;;
36547;SDS011;22551;52.206;4.856;2023-02-28T16:34:05;3.58;;;2.10;;
36547;SDS011;22551;52.206;4.856;2023-02-28T16:39:09;2.97;;;1.75;;
36547;SDS011;22551;52.206;4.856;2023-02-28T16:44:13;3.15;;;2.45;;
36547;SDS011;22551;52.206;4.856;2023-02-28T16:49:26;3.72;;;2.30;;
36547;SDS011;22551;52.206;4.856;2023-02-28T16:54:30;5.05;;;2.30;;
36547;SDS011;22551;52.206;4.856;2023-02-28T16:59:32;2.92;;;2.15;;
36547;SDS011;22551;52.206;4.856;2023-02-28T17:04:34;6.15;;;2.08;;
36547;SDS011;22551;52.206;4.856;2023-02-28T17:09:38;4.75;;;2.85;;
36547;SDS011;22551;52.206;4.856;2023-02-28T17:14:40;2.30;;;2.10;;
36547;SDS011;22551;52.206;4.856;2023-02-28T17:19:43;4.45;;;2.50;;
36547;SDS011;22551;52.206;4.856;2023-02-28T17:24:46;3.78;;;2.58;;
36547;SDS011;22551;52.206;4.856;2023-02-28T17:29:49;3.50;;;2.58;;
36547;SDS011;22551;52.206;4.856;2023-02-28T17:34:51;4.28;;;2.63;;
36547;SDS011;22551;52.206;4.856;2023-02-28T17:39:55;7.00;;;2.97;;
36547;SDS011;22551;52.206;4.856;2023-02-28T17:44:57;5.70;;;2.97;;
36547;SDS011;22551;52.206;4.856;2023-02-28T17:49:59;7.80;;;4.10;;
36547;SDS011;22551;52.206;4.856;2023-02-28T17:55:04;5.68;;;2.97;;
36547;SDS011;22551;52.206;4.856;2023-02-28T18:00:07;5.75;;;3.40;;
36547;SDS011;22551;52.206;4.856;2023-02-28T18:05:13;5.82;;;3.78;;
36547;SDS011;22551;52.206;4.856;2023-02-28T18:15:21;6.05;;;3.38;;
36547;SDS011;22551;52.206;4.856;2023-02-28T18:20:24;7.85;;;4.50;;
36547;SDS011;22551;52.206;4.856;2023-02-28T18:25:29;6.53;;;3.95;;
36547;SDS011;22551;52.206;4.856;2023-02-28T18:30:34;4.80;;;3.30;;
36547;SDS011;22551;52.206;4.856;2023-02-28T18:40:42;7.25;;;4.05;;
36547;SDS011;22551;52.206;4.856;2023-02-28T18:45:52;11.02;;;4.63;;
36547;SDS011;22551;52.206;4.856;2023-02-28T18:50:55;9.95;;;4.65;;
36547;SDS011;22551;52.206;4.856;2023-02-28T18:56:00;8.63;;;4.03;;
36547;SDS011;22551;52.206;4.856;2023-02-28T19:06:17;10.07;;;4.35;;
36547;SDS011;22551;52.206;4.856;2023-02-28T19:11:22;10.90;;;5.30;;
36547;SDS011;22551;52.206;4.856;2023-02-28T19:16:25;9.03;;;5.20;;
36547;SDS011;22551;52.206;4.856;2023-02-28T19:21:28;13.35;;;4.72;;
36547;SDS011;22551;52.206;4.856;2023-02-28T19:26:32;7.68;;;4.53;;
36547;SDS011;22551;52.206;4.856;2023-02-28T19:31:34;7.70;;;4.70;;
36547;SDS011;22551;52.206;4.856;2023-02-28T19:36:37;10.20;;;5.13;;
36547;SDS011;22551;52.206;4.856;2023-02-28T19:41:41;7.60;;;4.63;;
36547;SDS011;22551;52.206;4.856;2023-02-28T19:46:44;8.23;;;5.13;;
36547;SDS011;22551;52.206;4.856;2023-02-28T19:51:46;11.35;;;5.40;;
36547;SDS011;22551;52.206;4.856;2023-02-28T19:56:50;11.13;;;5.05;;
36547;SDS011;22551;52.206;4.856;2023-02-28T20:01:56;7.55;;;4.68;;
36547;SDS011;22551;52.206;4.856;2023-02-28T20:06:59;8.48;;;4.53;;
36547;SDS011;22551;52.206;4.856;2023-02-28T20:12:03;9.65;;;4.55;;
36547;SDS011;22551;52.206;4.856;2023-02-28T20:17:06;12.43;;;5.75;;
36547;SDS011;22551;52.206;4.856;2023-02-28T20:22:09;11.05;;;5.53;;
36547;SDS011;22551;52.206;4.856;2023-02-28T20:27:13;8.95;;;5.50;;
36547;SDS011;22551;52.206;4.856;2023-02-28T20:32:16;9.38;;;5.40;;
36547;SDS011;22551;52.206;4.856;2023-02-28T20:37:23;8.77;;;5.20;;
36547;SDS011;22551;52.206;4.856;2023-02-28T20:42:27;9.13;;;4.90;;
36547;SDS011;22551;52.206;4.856;2023-02-28T20:47:29;10.00;;;5.00;;
36547;SDS011;22551;52.206;4.856;2023-02-28T20:52:31;9.63;;;5.35;;
36547;SDS011;22551;52.206;4.856;2023-02-28T20:57:37;12.38;;;5.00;;
36547;SDS011;22551;52.206;4.856;2023-02-28T21:02:41;10.73;;;5.30;;
36547;SDS011;22551;52.206;4.856;2023-02-28T21:07:43;9.27;;;5.20;;
36547;SDS011;22551;52.206;4.856;2023-02-28T21:12:49;10.20;;;4.82;;
36547;SDS011;22551;52.206;4.856;2023-02-28T21:17:56;8.05;;;5.30;;
36547;SDS011;22551;52.206;4.856;2023-02-28T21:22:59;11.68;;;5.85;;
36547;SDS011;22551;52.206;4.856;2023-02-28T21:28:03;8.52;;;5.03;;
36547;SDS011;22551;52.206;4.856;2023-02-28T21:33:05;10.38;;;6.10;;
36547;SDS011;22551;52.206;4.856;2023-02-28T21:38:07;10.77;;;5.35;;
36547;SDS011;22551;52.206;4.856;2023-02-28T21:43:11;9.65;;;5.28;;
36547;SDS011;22551;52.206;4.856;2023-02-28T21:48:13;9.48;;;5.18;;
36547;SDS011;22551;52.206;4.856;2023-02-28T21:53:16;8.32;;;4.95;;
36547;SDS011;22551;52.206;4.856;2023-02-28T21:58:20;8.38;;;5.43;;
36547;SDS011;22551;52.206;4.856;2023-02-28T22:03:22;13.88;;;5.75;;
36547;SDS011;22551;52.206;4.856;2023-02-28T22:08:24;9.38;;;5.35;;
36547;SDS011;22551;52.206;4.856;2023-02-28T22:13:29;10.32;;;5.68;;
36547;SDS011;22551;52.206;4.856;2023-02-28T22:18:31;9.43;;;5.03;;
36547;SDS011;22551;52.206;4.856;2023-02-28T22:23:35;10.38;;;5.47;;
36547;SDS011;22551;52.206;4.856;2023-02-28T22:28:40;10.82;;;5.85;;
36547;SDS011;22551;52.206;4.856;2023-02-28T22:33:43;14.15;;;6.57;;
36547;SDS011;22551;52.206;4.856;2023-02-28T22:38:47;13.25;;;6.90;;
36547;SDS011;22551;52.206;4.856;2023-02-28T22:43:52;16.77;;;6.85;;
36547;SDS011;22551;52.206;4.856;2023-02-28T22:48:58;15.15;;;6.70;;
36547;SDS011;22551;52.206;4.856;2023-02-28T22:54:01;15.13;;;7.53;;
36547;SDS011;22551;52.206;4.856;2023-02-28T22:59:06;15.98;;;7.10;;
36547;SDS011;22551;52.206;4.856;2023-02-28T23:04:08;14.23;;;7.20;;
36547;SDS011;22551;52.206;4.856;2023-02-28T23:09:14;11.45;;;6.05;;
36547;SDS011;22551;52.206;4.856;2023-02-28T23:19:24;15.20;;;7.18;;
36547;SDS011;22551;52.206;4.856;2023-02-28T23:24:30;12.93;;;6.78;;
36547;SDS011;22551;52.206;4.856;2023-02-28T23:29:36;15.57;;;7.00;;
36547;SDS011;22551;52.206;4.856;2023-02-28T23:34:39;14.85;;;7.53;;
36547;SDS011;22551;52.206;4.856;2023-02-28T23:39:42;16.92;;;7.60;;
36547;SDS011;22551;52.206;4.856;2023-02-28T23:44:45;15.90;;;8.23;;
36547;SDS011;22551;52.206;4.856;2023-02-28T23:49:48;18.23;;;8.50;;
36547;SDS011;22551;52.206;4.856;2023-02-28T23:54:50;17.67;;;8.63;;
36547;SDS011;22551;52.206;4.856;2023-02-28T23:59:54;20.13;;;8.52;;
